sensor_id;sensor_type;location;lat;lon;timestamp;temperature;humidity
47765;DHT22;33529;49.242;8.670;2023-04-24T00:01:57;11.10;99.90
47765;DHT22;33529;49.242;8.670;2023-04-24T00:04:25;11.00;99.90
47765;DHT22;33529;49.242;8.670;2023-04-24T00:06:52;11.00;99.90
47765;DHT22;33529;49.242;8.670;2023-04-24T00:09:23;10.90;99.90
47765;DHT22;33529;49.242;8.670;2023-04-24T00:11:50;10.90;99.90
47765;DHT22;33529;49.242;8.670;2023-04-24T00:14:17;10.90;99.90
47765;DHT22;33529;49.242;8.670;2023-04-24T00:16:44;10.90;99.90
47765;DHT22;33529;49.242;8.670;2023-04-24T00:19:11;10.80;99.90
47765;DHT22;33529;49.242;8.670;2023-04-24T00:21:39;10.90;99.90
47765;DHT22;33529;49.242;8.670;2023-04-24T00:24:07;10.90;99.90
47765;DHT22;33529;49.242;8.670;2023-04-24T00:26:35;11.00;99.90
47765;DHT22;33529;49.242;8.670;2023-04-24T00:29:02;11.00;99.90
47765;DHT22;33529;49.242;8.670;2023-04-24T00:31:29;11.00;99.90
47765;DHT22;33529;49.242;8.670;2023-04-24T00:33:55;11.00;99.90
47765;DHT22;33529;49.242;8.670;2023-04-24T00:36:24;11.00;99.90
47765;DHT22;33529;49.242;8.670;2023-04-24T00:38:51;11.00;99.90
47765;DHT22;33529;49.242;8.670;2023-04-24T00:41:18;11.00;99.90
47765;DHT22;33529;49.242;8.670;2023-04-24T00:43:45;11.00;99.90
47765;DHT22;33529;49.242;8.670;2023-04-24T00:46:12;11.10;99.90
47765;DHT22;33529;49.242;8.670;2023-04-24T00:48:40;11.10;99.90
47765;DHT22;33529;49.242;8.670;2023-04-24T00:51:07;11.10;99.90
47765;DHT22;33529;49.242;8.670;2023-04-24T00:53:36;11.10;99.90
47765;DHT22;33529;49.242;8.670;2023-04-24T00:56:04;11.10;99.90
47765;DHT22;33529;49.242;8.670;2023-04-24T00:58:31;11.10;99.90
47765;DHT22;33529;49.242;8.670;2023-04-24T01:00:58;11.00;99.90
47765;DHT22;33529;49.242;8.670;2023-04-24T01:03:29;11.00;99.90
47765;DHT22;33529;49.242;8.670;2023-04-24T01:05:58;11.00;99.90
47765;DHT22;33529;49.242;8.670;2023-04-24T01:08:26;10.90;99.90
47765;DHT22;33529;49.242;8.670;2023-04-24T01:10:57;10.90;99.90
47765;DHT22;33529;49.242;8.670;2023-04-24T01:13:24;10.90;99.90
47765;DHT22;33529;49.242;8.670;2023-04-24T01:15:51;10.90;99.90
47765;DHT22;33529;49.242;8.670;2023-04-24T01:18:18;10.90;99.90
47765;DHT22;33529;49.242;8.670;2023-04-24T01:20:45;10.90;99.90
47765;DHT22;33529;49.242;8.670;2023-04-24T01:23:13;11.00;99.90
47765;DHT22;33529;49.242;8.670;2023-04-24T01:25:40;11.00;99.90
47765;DHT22;33529;49.242;8.670;2023-04-24T01:28:07;11.00;99.90
47765;DHT22;33529;49.242;8.670;2023-04-24T01:30:34;10.90;99.90
47765;DHT22;33529;49.242;8.670;2023-04-24T01:33:01;11.00;99.90
47765;DHT22;33529;49.242;8.670;2023-04-24T01:35:28;11.00;99.90
47765;DHT22;33529;49.242;8.670;2023-04-24T01:37:54;11.00;99.90
47765;DHT22;33529;49.242;8.670;2023-04-24T01:40:21;10.90;99.90
47765;DHT22;33529;49.242;8.670;2023-04-24T01:42:48;10.90;99.90
47765;DHT22;33529;49.242;8.670;2023-04-24T01:45:15;10.90;99.90
47765;DHT22;33529;49.242;8.670;2023-04-24T01:47:42;10.90;99.90
47765;DHT22;33529;49.242;8.670;2023-04-24T01:50:09;10.90;99.90
47765;DHT22;33529;49.242;8.670;2023-04-24T01:52:38;10.90;99.90
47765;DHT22;33529;49.242;8.670;2023-04-24T01:55:05;10.90;99.90
47765;DHT22;33529;49.242;8.670;2023-04-24T01:57:33;10.90;99.90
47765;DHT22;33529;49.242;8.670;2023-04-24T02:00:04;10.80;99.90
47765;DHT22;33529;49.242;8.670;2023-04-24T02:02:39;10.90;99.90
47765;DHT22;33529;49.242;8.670;2023-04-24T02:05:07;10.80;99.90
47765;DHT22;33529;49.242;8.670;2023-04-24T02:07:36;10.80;99.90
47765;DHT22;33529;49.242;8.670;2023-04-24T02:10:03;10.80;99.90
47765;DHT22;33529;49.242;8.670;2023-04-24T02:12:31;10.80;99.90
47765;DHT22;33529;49.242;8.670;2023-04-24T02:14:57;10.70;99.90
47765;DHT22;33529;49.242;8.670;2023-04-24T02:17:24;10.70;99.90
47765;DHT22;33529;49.242;8.670;2023-04-24T02:19:51;10.70;99.90
47765;DHT22;33529;49.242;8.670;2023-04-24T02:22:18;10.70;99.90
47765;DHT22;33529;49.242;8.670;2023-04-24T02:24:45;10.60;99.90
47765;DHT22;33529;49.242;8.670;2023-04-24T02:27:14;10.50;99.90
47765;DHT22;33529;49.242;8.670;2023-04-24T02:29:41;10.40;99.90
47765;DHT22;33529;49.242;8.670;2023-04-24T02:32:09;10.30;99.90
47765;DHT22;33529;49.242;8.670;2023-04-24T02:34:38;10.30;99.90
47765;DHT22;33529;49.242;8.670;2023-04-24T02:37:05;10.30;99.90
47765;DHT22;33529;49.242;8.670;2023-04-24T02:39:32;10.40;99.90
47765;DHT22;33529;49.242;8.670;2023-04-24T02:41:59;10.40;99.90
47765;DHT22;33529;49.242;8.670;2023-04-24T02:44:26;10.50;99.90
47765;DHT22;33529;49.242;8.670;2023-04-24T02:46:53;10.50;99.90
47765;DHT22;33529;49.242;8.670;2023-04-24T02:49:20;10.60;99.90
47765;DHT22;33529;49.242;8.670;2023-04-24T02:51:47;10.60;99.90
47765;DHT22;33529;49.242;8.670;2023-04-24T02:54:14;10.60;99.90
47765;DHT22;33529;49.242;8.670;2023-04-24T02:56:40;10.50;99.90
47765;DHT22;33529;49.242;8.670;2023-04-24T02:59:08;10.60;99.90
47765;DHT22;33529;49.242;8.670;2023-04-24T03:01:35;10.60;99.90
47765;DHT22;33529;49.242;8.670;2023-04-24T03:04:04;10.70;99.90
47765;DHT22;33529;49.242;8.670;2023-04-24T03:06:32;10.70;99.90
47765;DHT22;33529;49.242;8.670;2023-04-24T03:08:59;10.80;99.90
47765;DHT22;33529;49.242;8.670;2023-04-24T03:11:26;10.90;99.90
47765;DHT22;33529;49.242;8.670;2023-04-24T03:13:53;11.00;99.90
47765;DHT22;33529;49.242;8.670;2023-04-24T03:16:19;11.00;99.90
47765;DHT22;33529;49.242;8.670;2023-04-24T03:18:46;11.00;99.90
47765;DHT22;33529;49.242;8.670;2023-04-24T03:21:13;10.90;99.90
47765;DHT22;33529;49.242;8.670;2023-04-24T03:23:42;10.80;99.90
47765;DHT22;33529;49.242;8.670;2023-04-24T03:26:09;10.90;99.90
47765;DHT22;33529;49.242;8.670;2023-04-24T03:28:45;10.80;99.90
47765;DHT22;33529;49.242;8.670;2023-04-24T03:31:12;10.70;99.90
47765;DHT22;33529;49.242;8.670;2023-04-24T03:33:38;10.40;99.90
47765;DHT22;33529;49.242;8.670;2023-04-24T03:36:06;10.20;99.90
47765;DHT22;33529;49.242;8.670;2023-04-24T03:38:38;10.10;99.90
47765;DHT22;33529;49.242;8.670;2023-04-24T03:41:25;9.90;99.90
47765;DHT22;33529;49.242;8.670;2023-04-24T03:44:03;9.80;99.90
47765;DHT22;33529;49.242;8.670;2023-04-24T03:46:30;9.80;99.90
47765;DHT22;33529;49.242;8.670;2023-04-24T03:49:00;9.80;99.90
47765;DHT22;33529;49.242;8.670;2023-04-24T03:51:31;9.80;99.90
47765;DHT22;33529;49.242;8.670;2023-04-24T03:54:08;9.80;99.90
47765;DHT22;33529;49.242;8.670;2023-04-24T03:56:38;9.80;99.90
47765;DHT22;33529;49.242;8.670;2023-04-24T03:59:05;9.80;99.90
47765;DHT22;33529;49.242;8.670;2023-04-24T04:01:33;9.80;99.90
47765;DHT22;33529;49.242;8.670;2023-04-24T04:04:12;9.80;99.90
47765;DHT22;33529;49.242;8.670;2023-04-24T04:06:39;9.80;99.90
47765;DHT22;33529;49.242;8.670;2023-04-24T04:09:06;9.70;99.90
47765;DHT22;33529;49.242;8.670;2023-04-24T04:11:34;9.70;99.90
47765;DHT22;33529;49.242;8.670;2023-04-24T04:14:04;9.70;99.90
47765;DHT22;33529;49.242;8.670;2023-04-24T04:16:38;9.70;99.90
47765;DHT22;33529;49.242;8.670;2023-04-24T04:19:06;9.70;99.90
47765;DHT22;33529;49.242;8.670;2023-04-24T04:21:32;9.70;99.90
47765;DHT22;33529;49.242;8.670;2023-04-24T04:24:12;9.70;99.90
47765;DHT22;33529;49.242;8.670;2023-04-24T04:26:43;9.70;99.90
47765;DHT22;33529;49.242;8.670;2023-04-24T04:29:22;9.60;99.90
47765;DHT22;33529;49.242;8.670;2023-04-24T04:31:50;9.50;99.90
47765;DHT22;33529;49.242;8.670;2023-04-24T04:34:17;9.50;99.90
47765;DHT22;33529;49.242;8.670;2023-04-24T04:36:44;9.40;99.90
47765;DHT22;33529;49.242;8.670;2023-04-24T04:39:24;9.30;99.90
47765;DHT22;33529;49.242;8.670;2023-04-24T04:42:11;9.40;99.90
47765;DHT22;33529;49.242;8.670;2023-04-24T04:44:40;9.30;99.90
47765;DHT22;33529;49.242;8.670;2023-04-24T04:47:11;9.20;99.90
47765;DHT22;33529;49.242;8.670;2023-04-24T04:49:39;9.20;99.90
47765;DHT22;33529;49.242;8.670;2023-04-24T04:52:12;9.10;99.90
47765;DHT22;33529;49.242;8.670;2023-04-24T04:54:39;9.10;99.90
47765;DHT22;33529;49.242;8.670;2023-04-24T04:57:06;9.00;99.90
47765;DHT22;33529;49.242;8.670;2023-04-24T04:59:34;9.00;99.90
47765;DHT22;33529;49.242;8.670;2023-04-24T05:02:09;9.00;99.90
47765;DHT22;33529;49.242;8.670;2023-04-24T05:04:36;9.00;99.90
47765;DHT22;33529;49.242;8.670;2023-04-24T05:07:03;9.00;99.90
47765;DHT22;33529;49.242;8.670;2023-04-24T05:09:32;9.00;99.90
47765;DHT22;33529;49.242;8.670;2023-04-24T05:12:02;9.00;99.90
47765;DHT22;33529;49.242;8.670;2023-04-24T05:14:34;9.10;99.90
47765;DHT22;33529;49.242;8.670;2023-04-24T05:17:01;9.00;99.90
47765;DHT22;33529;49.242;8.670;2023-04-24T05:19:30;9.00;99.90
47765;DHT22;33529;49.242;8.670;2023-04-24T05:21:59;9.10;99.90
47765;DHT22;33529;49.242;8.670;2023-04-24T05:24:30;9.20;99.90
47765;DHT22;33529;49.242;8.670;2023-04-24T05:27:07;9.30;99.90
47765;DHT22;33529;49.242;8.670;2023-04-24T05:29:39;9.40;99.90
47765;DHT22;33529;49.242;8.670;2023-04-24T05:32:07;9.50;99.90
47765;DHT22;33529;49.242;8.670;2023-04-24T05:34:34;9.70;99.90
47765;DHT22;33529;49.242;8.670;2023-04-24T05:37:02;9.90;99.90
47765;DHT22;33529;49.242;8.670;2023-04-24T05:39:29;10.00;99.90
47765;DHT22;33529;49.242;8.670;2023-04-24T05:41:56;10.20;99.90
47765;DHT22;33529;49.242;8.670;2023-04-24T05:44:24;10.40;99.90
47765;DHT22;33529;49.242;8.670;2023-04-24T05:46:52;10.50;99.90
47765;DHT22;33529;49.242;8.670;2023-04-24T05:49:19;10.60;99.90
47765;DHT22;33529;49.242;8.670;2023-04-24T05:51:47;10.70;99.90
47765;DHT22;33529;49.242;8.670;2023-04-24T05:54:15;10.80;99.90
47765;DHT22;33529;49.242;8.670;2023-04-24T05:56:42;10.90;99.90
47765;DHT22;33529;49.242;8.670;2023-04-24T05:59:13;11.00;99.90
47765;DHT22;33529;49.242;8.670;2023-04-24T06:01:40;10.80;99.90
47765;DHT22;33529;49.242;8.670;2023-04-24T06:04:15;10.70;99.90
47765;DHT22;33529;49.242;8.670;2023-04-24T06:06:42;10.80;99.90
47765;DHT22;33529;49.242;8.670;2023-04-24T06:09:09;11.00;99.90
47765;DHT22;33529;49.242;8.670;2023-04-24T06:11:36;11.20;99.90
47765;DHT22;33529;49.242;8.670;2023-04-24T06:14:04;11.40;99.90
47765;DHT22;33529;49.242;8.670;2023-04-24T06:16:37;11.40;99.90
47765;DHT22;33529;49.242;8.670;2023-04-24T06:19:15;11.30;99.90
47765;DHT22;33529;49.242;8.670;2023-04-24T06:21:41;11.30;99.90
47765;DHT22;33529;49.242;8.670;2023-04-24T06:24:09;11.20;99.90
47765;DHT22;33529;49.242;8.670;2023-04-24T06:26:36;11.10;99.90
47765;DHT22;33529;49.242;8.670;2023-04-24T06:29:02;11.10;99.90
47765;DHT22;33529;49.242;8.670;2023-04-24T06:31:29;11.10;99.90
47765;DHT22;33529;49.242;8.670;2023-04-24T06:33:56;11.10;99.90
47765;DHT22;33529;49.242;8.670;2023-04-24T06:36:23;11.20;99.90
47765;DHT22;33529;49.242;8.670;2023-04-24T06:38:50;11.10;99.90
47765;DHT22;33529;49.242;8.670;2023-04-24T06:41:19;11.10;99.90
47765;DHT22;33529;49.242;8.670;2023-04-24T06:43:45;11.10;99.90
47765;DHT22;33529;49.242;8.670;2023-04-24T06:46:12;11.10;99.90
47765;DHT22;33529;49.242;8.670;2023-04-24T06:48:39;11.00;99.90
47765;DHT22;33529;49.242;8.670;2023-04-24T06:51:06;10.80;99.90
47765;DHT22;33529;49.242;8.670;2023-04-24T06:53:33;11.00;99.90
47765;DHT22;33529;49.242;8.670;2023-04-24T06:56:00;11.00;99.90
47765;DHT22;33529;49.242;8.670;2023-04-24T06:58:27;11.00;99.90
47765;DHT22;33529;49.242;8.670;2023-04-24T07:00:54;11.10;99.90
47765;DHT22;33529;49.242;8.670;2023-04-24T07:03:20;11.10;99.90
47765;DHT22;33529;49.242;8.670;2023-04-24T07:05:48;11.20;99.90
47765;DHT22;33529;49.242;8.670;2023-04-24T07:08:16;11.30;99.90
47765;DHT22;33529;49.242;8.670;2023-04-24T07:10:44;11.30;99.90
47765;DHT22;33529;49.242;8.670;2023-04-24T07:13:11;11.20;99.90
47765;DHT22;33529;49.242;8.670;2023-04-24T07:15:38;11.20;99.90
47765;DHT22;33529;49.242;8.670;2023-04-24T07:18:06;11.30;99.90
47765;DHT22;33529;49.242;8.670;2023-04-24T07:20:33;11.40;99.90
47765;DHT22;33529;49.242;8.670;2023-04-24T07:23:00;11.50;99.90
47765;DHT22;33529;49.242;8.670;2023-04-24T07:25:27;11.60;99.90
47765;DHT22;33529;49.242;8.670;2023-04-24T07:27:54;11.60;99.90
47765;DHT22;33529;49.242;8.670;2023-04-24T07:30:21;11.40;99.90
47765;DHT22;33529;49.242;8.670;2023-04-24T07:32:48;11.00;99.90
47765;DHT22;33529;49.242;8.670;2023-04-24T07:35:14;10.40;99.90
47765;DHT22;33529;49.242;8.670;2023-04-24T07:37:41;9.80;99.90
47765;DHT22;33529;49.242;8.670;2023-04-24T07:40:12;9.40;99.90
47765;DHT22;33529;49.242;8.670;2023-04-24T07:42:40;9.20;99.90
47765;DHT22;33529;49.242;8.670;2023-04-24T07:45:07;9.10;99.90
47765;DHT22;33529;49.242;8.670;2023-04-24T07:47:34;9.10;99.90
47765;DHT22;33529;49.242;8.670;2023-04-24T07:50:03;9.10;99.90
47765;DHT22;33529;49.242;8.670;2023-04-24T07:52:30;9.10;99.90
47765;DHT22;33529;49.242;8.670;2023-04-24T07:54:57;9.30;99.90
47765;DHT22;33529;49.242;8.670;2023-04-24T07:57:28;9.30;99.90
47765;DHT22;33529;49.242;8.670;2023-04-24T07:59:55;9.30;99.90
47765;DHT22;33529;49.242;8.670;2023-04-24T08:02:22;9.50;99.90
47765;DHT22;33529;49.242;8.670;2023-04-24T08:04:53;9.70;99.90
47765;DHT22;33529;49.242;8.670;2023-04-24T08:07:25;9.90;99.90
47765;DHT22;33529;49.242;8.670;2023-04-24T08:09:54;10.20;99.90
47765;DHT22;33529;49.242;8.670;2023-04-24T08:12:21;10.30;99.90
47765;DHT22;33529;49.242;8.670;2023-04-24T08:14:48;10.10;99.90
47765;DHT22;33529;49.242;8.670;2023-04-24T08:17:16;10.00;99.90
47765;DHT22;33529;49.242;8.670;2023-04-24T08:19:44;10.00;99.90
47765;DHT22;33529;49.242;8.670;2023-04-24T08:22:15;10.10;99.90
47765;DHT22;33529;49.242;8.670;2023-04-24T08:24:42;10.40;99.90
47765;DHT22;33529;49.242;8.670;2023-04-24T08:27:09;10.80;99.90
47765;DHT22;33529;49.242;8.670;2023-04-24T08:29:36;11.20;99.90
47765;DHT22;33529;49.242;8.670;2023-04-24T08:32:03;11.50;99.90
47765;DHT22;33529;49.242;8.670;2023-04-24T08:34:30;12.10;99.90
47765;DHT22;33529;49.242;8.670;2023-04-24T08:36:57;12.40;99.90
47765;DHT22;33529;49.242;8.670;2023-04-24T08:39:23;12.50;99.90
47765;DHT22;33529;49.242;8.670;2023-04-24T08:41:50;12.40;99.90
47765;DHT22;33529;49.242;8.670;2023-04-24T08:44:19;12.10;99.90
47765;DHT22;33529;49.242;8.670;2023-04-24T08:46:47;11.70;99.90
47765;DHT22;33529;49.242;8.670;2023-04-24T08:49:15;11.50;99.90
47765;DHT22;33529;49.242;8.670;2023-04-24T08:51:45;11.40;99.90
47765;DHT22;33529;49.242;8.670;2023-04-24T08:54:14;11.20;99.90
47765;DHT22;33529;49.242;8.670;2023-04-24T08:56:43;11.20;99.90
47765;DHT22;33529;49.242;8.670;2023-04-24T08:59:10;11.20;99.90
47765;DHT22;33529;49.242;8.670;2023-04-24T09:01:38;11.20;99.90
47765;DHT22;33529;49.242;8.670;2023-04-24T09:04:08;11.20;99.90
47765;DHT22;33529;49.242;8.670;2023-04-24T09:06:37;11.30;99.90
47765;DHT22;33529;49.242;8.670;2023-04-24T09:09:04;11.60;99.90
47765;DHT22;33529;49.242;8.670;2023-04-24T09:11:32;11.80;99.90
47765;DHT22;33529;49.242;8.670;2023-04-24T09:14:01;11.90;99.90
47765;DHT22;33529;49.242;8.670;2023-04-24T09:16:31;12.00;99.90
47765;DHT22;33529;49.242;8.670;2023-04-24T09:19:02;12.10;99.90
47765;DHT22;33529;49.242;8.670;2023-04-24T09:21:33;12.10;99.90
47765;DHT22;33529;49.242;8.670;2023-04-24T09:24:02;12.00;99.90
47765;DHT22;33529;49.242;8.670;2023-04-24T09:26:31;11.90;99.90
47765;DHT22;33529;49.242;8.670;2023-04-24T09:29:00;11.70;99.90
47765;DHT22;33529;49.242;8.670;2023-04-24T09:31:28;11.50;99.90
47765;DHT22;33529;49.242;8.670;2023-04-24T09:34:04;11.40;99.90
47765;DHT22;33529;49.242;8.670;2023-04-24T09:36:35;11.40;99.90
47765;DHT22;33529;49.242;8.670;2023-04-24T09:39:07;11.50;99.90
47765;DHT22;33529;49.242;8.670;2023-04-24T09:41:35;11.50;99.90
47765;DHT22;33529;49.242;8.670;2023-04-24T09:44:16;11.40;99.90
47765;DHT22;33529;49.242;8.670;2023-04-24T09:46:44;11.20;99.90
47765;DHT22;33529;49.242;8.670;2023-04-24T09:49:15;11.00;99.90
47765;DHT22;33529;49.242;8.670;2023-04-24T09:51:43;11.00;99.90
47765;DHT22;33529;49.242;8.670;2023-04-24T09:54:20;10.90;99.90
47765;DHT22;33529;49.242;8.670;2023-04-24T09:56:49;11.00;99.90
47765;DHT22;33529;49.242;8.670;2023-04-24T09:59:18;11.10;99.90
47765;DHT22;33529;49.242;8.670;2023-04-24T10:01:46;11.20;99.90
47765;DHT22;33529;49.242;8.670;2023-04-24T10:04:16;11.40;99.90
47765;DHT22;33529;49.242;8.670;2023-04-24T10:06:45;11.70;99.90
47765;DHT22;33529;49.242;8.670;2023-04-24T10:09:12;12.00;99.90
47765;DHT22;33529;49.242;8.670;2023-04-24T10:11:44;12.20;99.90
47765;DHT22;33529;49.242;8.670;2023-04-24T10:14:15;12.30;99.90
47765;DHT22;33529;49.242;8.670;2023-04-24T10:16:43;12.40;99.90
47765;DHT22;33529;49.242;8.670;2023-04-24T10:19:10;12.10;99.90
47765;DHT22;33529;49.242;8.670;2023-04-24T10:21:41;12.00;99.90
47765;DHT22;33529;49.242;8.670;2023-04-24T10:24:16;11.80;99.90
47765;DHT22;33529;49.242;8.670;2023-04-24T10:26:44;11.60;99.90
47765;DHT22;33529;49.242;8.670;2023-04-24T10:29:13;11.40;99.90
47765;DHT22;33529;49.242;8.670;2023-04-24T10:31:40;11.60;99.90
47765;DHT22;33529;49.242;8.670;2023-04-24T10:34:08;11.70;99.90
47765;DHT22;33529;49.242;8.670;2023-04-24T10:36:40;11.70;99.90
47765;DHT22;33529;49.242;8.670;2023-04-24T10:39:11;11.40;99.90
47765;DHT22;33529;49.242;8.670;2023-04-24T10:41:39;11.20;99.90
47765;DHT22;33529;49.242;8.670;2023-04-24T10:44:06;10.90;99.90
47765;DHT22;33529;49.242;8.670;2023-04-24T10:46:34;10.60;99.90
47765;DHT22;33529;49.242;8.670;2023-04-24T10:49:04;10.50;99.90
47765;DHT22;33529;49.242;8.670;2023-04-24T10:51:46;10.40;99.90
47765;DHT22;33529;49.242;8.670;2023-04-24T10:54:55;10.40;99.90
47765;DHT22;33529;49.242;8.670;2023-04-24T10:59:46;11.20;99.90
47765;DHT22;33529;49.242;8.670;2023-04-24T11:02:17;11.60;99.90
47765;DHT22;33529;49.242;8.670;2023-04-24T11:04:45;12.00;99.90
47765;DHT22;33529;49.242;8.670;2023-04-24T11:07:12;12.20;99.90
47765;DHT22;33529;49.242;8.670;2023-04-24T11:09:39;12.40;99.90
47765;DHT22;33529;49.242;8.670;2023-04-24T11:12:11;12.70;99.90
47765;DHT22;33529;49.242;8.670;2023-04-24T11:17:37;13.30;99.90
47765;DHT22;33529;49.242;8.670;2023-04-24T11:20:10;13.50;99.90
47765;DHT22;33529;49.242;8.670;2023-04-24T11:22:55;13.80;99.90
47765;DHT22;33529;49.242;8.670;2023-04-24T11:25:22;13.70;99.90
47765;DHT22;33529;49.242;8.670;2023-04-24T11:27:49;13.70;99.90
47765;DHT22;33529;49.242;8.670;2023-04-24T11:30:18;13.70;99.90
47765;DHT22;33529;49.242;8.670;2023-04-24T11:32:50;13.70;99.90
47765;DHT22;33529;49.242;8.670;2023-04-24T11:35:22;13.60;99.90
47765;DHT22;33529;49.242;8.670;2023-04-24T11:37:54;13.10;99.90
47765;DHT22;33529;49.242;8.670;2023-04-24T11:40:41;12.70;99.90
47765;DHT22;33529;49.242;8.670;2023-04-24T11:43:09;12.40;99.90
47765;DHT22;33529;49.242;8.670;2023-04-24T11:45:36;12.30;99.90
47765;DHT22;33529;49.242;8.670;2023-04-24T11:48:03;12.30;99.90
47765;DHT22;33529;49.242;8.670;2023-04-24T11:50:30;12.30;99.90
47765;DHT22;33529;49.242;8.670;2023-04-24T11:52:57;12.40;99.90
47765;DHT22;33529;49.242;8.670;2023-04-24T11:55:28;12.50;99.90
47765;DHT22;33529;49.242;8.670;2023-04-24T11:57:58;12.90;99.90
47765;DHT22;33529;49.242;8.670;2023-04-24T12:00:27;13.20;99.90
47765;DHT22;33529;49.242;8.670;2023-04-24T12:03:11;13.40;99.90
47765;DHT22;33529;49.242;8.670;2023-04-24T12:05:39;13.30;99.90
47765;DHT22;33529;49.242;8.670;2023-04-24T12:08:07;12.90;99.90
47765;DHT22;33529;49.242;8.670;2023-04-24T12:10:35;12.80;99.90
47765;DHT22;33529;49.242;8.670;2023-04-24T12:13:02;12.80;99.90
47765;DHT22;33529;49.242;8.670;2023-04-24T12:15:29;12.70;99.90
47765;DHT22;33529;49.242;8.670;2023-04-24T12:17:56;12.90;99.90
47765;DHT22;33529;49.242;8.670;2023-04-24T12:20:29;13.10;99.90
47765;DHT22;33529;49.242;8.670;2023-04-24T12:22:57;13.10;99.90
47765;DHT22;33529;49.242;8.670;2023-04-24T12:25:29;13.10;99.90
47765;DHT22;33529;49.242;8.670;2023-04-24T12:30:34;13.00;99.90
47765;DHT22;33529;49.242;8.670;2023-04-24T12:33:02;12.80;99.90
47765;DHT22;33529;49.242;8.670;2023-04-24T12:35:31;13.00;99.90
47765;DHT22;33529;49.242;8.670;2023-04-24T12:38:10;13.00;99.90
47765;DHT22;33529;49.242;8.670;2023-04-24T12:40:39;13.10;99.90
47765;DHT22;33529;49.242;8.670;2023-04-24T12:43:18;13.20;99.90
47765;DHT22;33529;49.242;8.670;2023-04-24T12:45:47;13.00;99.90
47765;DHT22;33529;49.242;8.670;2023-04-24T12:48:14;12.70;99.90
47765;DHT22;33529;49.242;8.670;2023-04-24T12:50:42;12.60;99.90
47765;DHT22;33529;49.242;8.670;2023-04-24T12:53:14;12.60;99.90
47765;DHT22;33529;49.242;8.670;2023-04-24T12:55:40;12.70;99.90
47765;DHT22;33529;49.242;8.670;2023-04-24T12:58:07;12.80;99.90
47765;DHT22;33529;49.242;8.670;2023-04-24T13:00:34;12.80;99.90
47765;DHT22;33529;49.242;8.670;2023-04-24T13:03:02;13.20;99.90
47765;DHT22;33529;49.242;8.670;2023-04-24T13:05:30;13.40;99.90
47765;DHT22;33529;49.242;8.670;2023-04-24T13:07:57;13.70;99.90
47765;DHT22;33529;49.242;8.670;2023-04-24T13:10:24;13.80;99.90
47765;DHT22;33529;49.242;8.670;2023-04-24T13:12:51;13.70;99.90
47765;DHT22;33529;49.242;8.670;2023-04-24T13:15:17;13.70;99.90
47765;DHT22;33529;49.242;8.670;2023-04-24T13:17:44;13.80;99.90
47765;DHT22;33529;49.242;8.670;2023-04-24T13:20:11;14.00;99.90
47765;DHT22;33529;49.242;8.670;2023-04-24T13:22:40;14.00;99.90
47765;DHT22;33529;49.242;8.670;2023-04-24T13:25:07;14.00;99.90
47765;DHT22;33529;49.242;8.670;2023-04-24T13:27:34;13.90;99.90
47765;DHT22;33529;49.242;8.670;2023-04-24T13:30:01;13.90;99.90
47765;DHT22;33529;49.242;8.670;2023-04-24T13:32:30;13.80;99.90
47765;DHT22;33529;49.242;8.670;2023-04-24T13:34:58;14.10;99.90
47765;DHT22;33529;49.242;8.670;2023-04-24T13:37:25;14.60;99.90
47765;DHT22;33529;49.242;8.670;2023-04-24T13:39:52;14.70;99.90
47765;DHT22;33529;49.242;8.670;2023-04-24T13:42:19;14.90;99.90
47765;DHT22;33529;49.242;8.670;2023-04-24T13:44:46;14.70;99.90
47765;DHT22;33529;49.242;8.670;2023-04-24T13:47:13;14.60;99.90
47765;DHT22;33529;49.242;8.670;2023-04-24T13:49:40;14.50;99.90
47765;DHT22;33529;49.242;8.670;2023-04-24T13:52:06;14.40;99.90
47765;DHT22;33529;49.242;8.670;2023-04-24T13:54:34;14.40;99.90
47765;DHT22;33529;49.242;8.670;2023-04-24T13:57:00;14.50;99.90
47765;DHT22;33529;49.242;8.670;2023-04-24T13:59:29;14.80;99.90
47765;DHT22;33529;49.242;8.670;2023-04-24T14:01:56;15.00;99.90
47765;DHT22;33529;49.242;8.670;2023-04-24T14:04:23;14.90;99.90
47765;DHT22;33529;49.242;8.670;2023-04-24T14:06:50;14.70;99.90
47765;DHT22;33529;49.242;8.670;2023-04-24T14:09:17;14.40;99.90
47765;DHT22;33529;49.242;8.670;2023-04-24T14:11:44;14.30;99.90
47765;DHT22;33529;49.242;8.670;2023-04-24T14:14:11;14.30;99.90
47765;DHT22;33529;49.242;8.670;2023-04-24T14:16:38;14.20;99.90
47765;DHT22;33529;49.242;8.670;2023-04-24T14:19:05;13.90;99.90
47765;DHT22;33529;49.242;8.670;2023-04-24T14:21:33;13.70;99.90
47765;DHT22;33529;49.242;8.670;2023-04-24T14:24:00;13.70;99.90
47765;DHT22;33529;49.242;8.670;2023-04-24T14:26:27;14.00;99.90
47765;DHT22;33529;49.242;8.670;2023-04-24T14:28:54;14.30;99.90
47765;DHT22;33529;49.242;8.670;2023-04-24T14:31:36;14.60;99.90
47765;DHT22;33529;49.242;8.670;2023-04-24T14:34:03;14.80;99.90
47765;DHT22;33529;49.242;8.670;2023-04-24T14:36:30;14.90;99.90
47765;DHT22;33529;49.242;8.670;2023-04-24T14:38:58;14.80;99.90
47765;DHT22;33529;49.242;8.670;2023-04-24T14:41:25;14.80;99.90
47765;DHT22;33529;49.242;8.670;2023-04-24T14:43:52;14.70;99.90
47765;DHT22;33529;49.242;8.670;2023-04-24T14:46:19;14.50;99.90
47765;DHT22;33529;49.242;8.670;2023-04-24T14:48:46;14.30;99.90
47765;DHT22;33529;49.242;8.670;2023-04-24T14:51:14;14.00;99.90
47765;DHT22;33529;49.242;8.670;2023-04-24T14:53:40;14.00;99.90
47765;DHT22;33529;49.242;8.670;2023-04-24T14:56:07;13.90;99.90
47765;DHT22;33529;49.242;8.670;2023-04-24T14:58:34;13.80;99.90
47765;DHT22;33529;49.242;8.670;2023-04-24T15:01:01;13.60;99.90
47765;DHT22;33529;49.242;8.670;2023-04-24T15:03:29;13.20;99.90
47765;DHT22;33529;49.242;8.670;2023-04-24T15:05:57;13.00;99.90
47765;DHT22;33529;49.242;8.670;2023-04-24T15:08:24;12.60;99.90
47765;DHT22;33529;49.242;8.670;2023-04-24T15:10:51;12.50;99.90
47765;DHT22;33529;49.242;8.670;2023-04-24T15:13:18;12.50;99.90
47765;DHT22;33529;49.242;8.670;2023-04-24T15:15:46;12.50;99.90
47765;DHT22;33529;49.242;8.670;2023-04-24T15:18:13;12.40;99.90
47765;DHT22;33529;49.242;8.670;2023-04-24T15:20:40;12.20;99.90
47765;DHT22;33529;49.242;8.670;2023-04-24T15:23:11;12.00;99.90
47765;DHT22;33529;49.242;8.670;2023-04-24T15:25:38;11.90;99.90
47765;DHT22;33529;49.242;8.670;2023-04-24T15:28:09;12.00;99.90
47765;DHT22;33529;49.242;8.670;2023-04-24T15:30:36;12.00;99.90
47765;DHT22;33529;49.242;8.670;2023-04-24T15:33:05;12.10;99.90
47765;DHT22;33529;49.242;8.670;2023-04-24T15:35:33;12.00;99.90
47765;DHT22;33529;49.242;8.670;2023-04-24T15:38:00;11.80;99.90
47765;DHT22;33529;49.242;8.670;2023-04-24T15:40:29;11.50;99.90
47765;DHT22;33529;49.242;8.670;2023-04-24T15:42:56;11.30;99.90
47765;DHT22;33529;49.242;8.670;2023-04-24T15:45:23;11.20;99.90
47765;DHT22;33529;49.242;8.670;2023-04-24T15:47:50;11.20;99.90
47765;DHT22;33529;49.242;8.670;2023-04-24T15:50:17;11.20;99.90